createdAt,value
2022-08-19T00:01:54.076Z,101446.88
2022-08-19T00:04:26.869Z,101449.03
2022-08-19T00:06:54.571Z,101440.50
2022-08-19T00:09:24.732Z,101443.25
2022-08-19T00:11:53.919Z,101446.78
2022-08-19T00:14:21.715Z,101450.00
2022-08-19T00:16:52.196Z,101460.34
2022-08-19T00:19:19.116Z,101459.16
2022-08-19T00:21:46.040Z,101455.41
2022-08-19T00:24:15.519Z,101458.25
2022-08-19T00:26:45.007Z,101450.06
2022-08-19T00:29:15.123Z,101452.94
2022-08-19T00:31:43.674Z,101449.63
2022-08-19T00:34:13.724Z,101450.13
2022-08-19T00:36:42.226Z,101452.00
2022-08-19T00:39:10.541Z,101451.09
2022-08-19T00:41:37.683Z,101458.19
2022-08-19T00:44:15.548Z,101444.56
2022-08-19T00:46:55.621Z,101446.84
2022-08-19T00:49:33.803Z,101444.13
2022-08-19T00:52:15.294Z,101439.28
2022-08-19T00:54:44.496Z,101449.69
2022-08-19T00:57:16.508Z,101441.28
2022-08-19T01:00:00.566Z,101448.03
2022-08-19T01:02:32.083Z,101444.88
2022-08-19T01:05:01.471Z,101443.94
2022-08-19T01:07:28.644Z,101452.19
2022-08-19T01:10:04.275Z,101448.66
2022-08-19T01:12:31.942Z,101446.66
2022-08-19T01:15:00.345Z,101445.81
2022-08-19T01:17:28.516Z,101441.69
2022-08-19T01:19:55.557Z,101450.34
2022-08-19T01:22:31.471Z,101440.16
2022-08-19T01:25:00.366Z,101438.28
2022-08-19T01:27:42.945Z,101444.78
2022-08-19T01:30:22.554Z,101438.75
2022-08-19T01:32:51.157Z,101439.81
2022-08-19T01:35:19.119Z,101444.91
2022-08-19T01:37:52.779Z,101446.78
2022-08-19T01:40:24.706Z,101446.22
2022-08-19T01:42:52.813Z,101454.25
2022-08-19T01:45:22.936Z,101444.91
2022-08-19T01:48:01.271Z,101441.59
2022-08-19T01:50:32.347Z,101446.09
2022-08-19T01:53:06.330Z,101444.81
2022-08-19T01:55:40.828Z,101446.94
2022-08-19T01:58:16.210Z,101454.88
2022-08-19T02:00:44.461Z,101461.69
2022-08-19T02:03:12.214Z,101457.09
2022-08-19T02:05:40.630Z,101462.53
2022-08-19T02:08:08.457Z,101453.81
2022-08-19T02:10:41.435Z,101454.28
2022-08-19T02:13:08.536Z,101458.06
2022-08-19T02:15:35.457Z,101448.72
2022-08-19T02:18:02.368Z,101451.91
2022-08-19T02:20:29.279Z,101454.97
2022-08-19T02:22:56.209Z,101452.84
2022-08-19T02:25:23.251Z,101452.25
2022-08-19T02:27:50.246Z,101447.91
2022-08-19T02:30:19.870Z,101455.56
2022-08-19T02:32:46.928Z,101458.03
2022-08-19T02:35:15.591Z,101462.28
2022-08-19T02:38:02.799Z,101466.44
2022-08-19T02:40:35.197Z,101467.72
2022-08-19T02:43:04.196Z,101479.44
2022-08-19T02:45:41.577Z,101479.06
2022-08-19T02:48:14.946Z,101478.47
2022-08-19T02:50:54.621Z,101475.97
2022-08-19T02:53:24.074Z,101472.91
2022-08-19T02:55:52.150Z,101469.59
2022-08-19T02:58:21.280Z,101474.66
2022-08-19T03:00:57.268Z,101475.50
2022-08-19T03:03:24.509Z,101478.22
2022-08-19T03:05:56.524Z,101476.56
2022-08-19T03:08:26.346Z,101475.97
2022-08-19T03:10:53.899Z,101477.84
2022-08-19T03:13:21.300Z,101471.03
2022-08-19T03:15:49.546Z,101460.59
2022-08-19T03:18:17.869Z,101458.09
2022-08-19T03:20:49.124Z,101451.25
2022-08-19T03:23:17.774Z,101460.47
2022-08-19T03:26:03.146Z,101455.25
2022-08-19T03:28:36.348Z,101453.59
2022-08-19T03:31:43.976Z,101452.19
2022-08-19T03:33:55.612Z,101455.13
2022-08-19T03:36:26.283Z,101457.00
2022-08-19T03:39:00.065Z,101448.72
2022-08-19T03:41:45.746Z,101455.22
2022-08-19T03:44:23.806Z,101460.66
2022-08-19T03:46:56.112Z,101459.59
2022-08-19T03:49:28.247Z,101471.97
2022-08-19T03:52:01.180Z,101462.75
2022-08-19T03:54:29.605Z,101454.03
2022-08-19T03:56:57.750Z,101458.03
2022-08-19T03:59:30.007Z,101445.75
2022-08-19T04:02:00.324Z,101450.56
2022-08-19T04:04:28.963Z,101454.34
2022-08-19T04:06:57.253Z,101454.34
2022-08-19T04:09:24.331Z,101455.03
2022-08-19T04:11:55.036Z,101445.47
2022-08-19T04:14:29.285Z,101438.97
2022-08-19T04:16:56.712Z,101439.44
2022-08-19T04:19:24.372Z,101431.91
2022-08-19T04:21:54.708Z,101440.13
2022-08-19T04:24:22.620Z,101444.50
2022-08-19T04:26:50.275Z,101452.41
2022-08-19T04:29:25.701Z,101442.25
2022-08-19T04:31:55.317Z,101441.19
2022-08-19T04:34:25.456Z,101435.75
2022-08-19T04:36:55.630Z,101438.25
2022-08-19T04:39:46.750Z,101438.63
2022-08-19T04:42:32.612Z,101445.47
2022-08-19T04:45:00.132Z,101443.34
2022-08-19T04:47:46.877Z,101437.69
2022-08-19T04:50:15.179Z,101441.22
2022-08-19T04:52:43.755Z,101435.56
2022-08-19T04:55:13.507Z,101437.59
2022-08-19T04:57:41.049Z,101436.53
2022-08-19T05:00:10.424Z,101438.66
2022-08-19T05:02:38.160Z,101439.84
2022-08-19T05:05:07.323Z,101446.94
2022-08-19T05:07:34.481Z,101450.72
2022-08-19T05:10:01.752Z,101449.88
2022-08-19T05:12:29.643Z,101455.09
2022-08-19T05:14:58.475Z,101456.50
2022-08-19T05:17:28.987Z,101464.66
2022-08-19T05:20:17.197Z,101456.03
2022-08-19T05:22:47.674Z,101462.31
2022-08-19T05:25:20.409Z,101466.69
2022-08-19T05:27:48.959Z,101461.84
2022-08-19T05:30:17.168Z,101457.00
2022-08-19T05:32:44.876Z,101464.09
2022-08-19T05:35:12.571Z,101460.31
2022-08-19T05:37:41.219Z,101461.50
2022-08-19T05:40:10.596Z,101459.41
2022-08-19T05:42:38.410Z,101453.91
2022-08-19T05:45:07.188Z,101466.75
2022-08-19T05:47:34.269Z,101472.53
2022-08-19T05:50:04.814Z,101470.19
2022-08-19T05:52:32.509Z,101466.53
2022-08-19T05:55:00.441Z,101462.06
2022-08-19T05:57:29.689Z,101450.25
2022-08-19T05:59:58.804Z,101449.53
2022-08-19T06:02:28.060Z,101456.28
2022-08-19T06:04:55.055Z,101458.66
2022-08-19T06:07:22.493Z,101465.25
2022-08-19T06:09:58.843Z,101469.03
2022-08-19T06:12:31.444Z,101467.63
2022-08-19T06:15:00.728Z,101466.06
2022-08-19T06:17:31.068Z,101469.03
2022-08-19T06:19:59.381Z,101461.91
2022-08-19T06:22:27.137Z,101465.31
2022-08-19T06:24:55.075Z,101461.88
2022-08-19T06:27:23.199Z,101456.97
2022-08-19T06:29:50.601Z,101448.88
2022-08-19T06:32:19.677Z,101457.28
2022-08-19T06:34:47.562Z,101457.25
2022-08-19T06:37:15.260Z,101461.31
2022-08-19T06:39:45.068Z,101461.09
2022-08-19T06:42:16.983Z,101460.34
2022-08-19T06:44:49.273Z,101464.81
2022-08-19T06:47:23.632Z,101464.63
2022-08-19T06:50:05.367Z,101464.19
2022-08-19T06:52:38.184Z,101465.28
2022-08-19T06:55:06.930Z,101469.22
2022-08-19T06:57:35.445Z,101472.72
2022-08-19T07:00:03.491Z,101466.88
2022-08-19T07:02:30.473Z,101475.25
2022-08-19T07:05:06.683Z,101469.38
2022-08-19T07:07:34.935Z,101471.84
2022-08-19T07:10:03.940Z,101480.84
2022-08-19T07:12:35.526Z,101477.25
2022-08-19T07:15:06.211Z,101480.28
2022-08-19T07:17:34.613Z,101477.94
2022-08-19T07:20:05.393Z,101485.88
2022-08-19T07:22:38.472Z,101481.91
2022-08-19T07:25:08.351Z,101482.50
2022-08-19T07:27:35.352Z,101479.22
2022-08-19T07:30:02.742Z,101482.00
2022-08-19T07:32:31.669Z,101481.41
2022-08-19T07:35:01.332Z,101478.31
2022-08-19T07:37:33.129Z,101489.38
2022-08-19T07:40:05.780Z,101490.56
2022-08-19T07:42:32.901Z,101487.59
2022-08-19T07:45:00.204Z,101488.16
2022-08-19T07:47:50.390Z,101478.06
2022-08-19T07:50:16.891Z,101496.72
2022-08-19T07:52:45.172Z,101496.50
2022-08-19T07:55:41.241Z,101494.63
2022-08-19T07:58:03.364Z,101492.22
2022-08-19T08:00:32.023Z,101490.41
2022-08-19T08:02:59.048Z,101512.28
2022-08-19T08:05:45.253Z,101513.09
2022-08-19T08:08:33.892Z,101513.50
2022-08-19T08:11:01.445Z,101514.25
2022-08-19T08:13:29.289Z,101514.47
2022-08-19T08:15:57.743Z,101519.94
2022-08-19T08:18:28.070Z,101530.66
2022-08-19T08:20:59.151Z,101523.84
2022-08-19T08:23:27.476Z,101516.97
2022-08-19T08:25:58.757Z,101523.09
2022-08-19T08:28:29.571Z,101522.50
2022-08-19T08:30:57.994Z,101528.56
2022-08-19T08:33:33.205Z,101529.19
2022-08-19T08:36:07.025Z,101543.84
2022-08-19T08:38:39.654Z,101556.09
2022-08-19T08:41:24.120Z,101545.56
2022-08-19T08:43:53.856Z,101549.63
2022-08-19T08:46:43.056Z,101545.44
2022-08-19T08:49:19.591Z,101547.94
2022-08-19T08:52:01.955Z,101544.13
2022-08-19T08:54:40.536Z,101545.00
2022-08-19T08:57:30.512Z,101536.88
2022-08-19T09:00:15.705Z,101539.19
2022-08-19T09:02:44.018Z,101543.59
2022-08-19T09:05:16.809Z,101542.59
2022-08-19T09:08:01.717Z,101531.09
2022-08-19T09:10:44.618Z,101531.97
2022-08-19T09:13:45.618Z,101535.28
2022-08-19T09:16:21.907Z,101533.38
2022-08-19T09:18:59.840Z,101537.28
2022-08-19T09:21:30.579Z,101540.88
2022-08-19T09:24:01.064Z,101537.63
2022-08-19T09:26:47.658Z,101545.75
2022-08-19T09:29:19.598Z,101538.72
2022-08-19T09:31:50.344Z,101538.31
2022-08-19T09:34:20.807Z,101538.88
2022-08-19T09:36:53.881Z,101537.63
2022-08-19T09:39:21.683Z,101530.03
2022-08-19T09:41:50.579Z,101530.03
2022-08-19T09:44:18.197Z,101531.22
2022-08-19T09:46:48.000Z,101534.69
2022-08-19T09:49:16.083Z,101534.59
2022-08-19T09:51:50.785Z,101533.16
2022-08-19T09:54:22.468Z,101523.63
2022-08-19T09:56:52.868Z,101533.31
2022-08-19T09:59:19.926Z,101534.38
2022-08-19T10:01:47.057Z,101532.88
2022-08-19T10:04:20.424Z,101536.50
2022-08-19T10:06:53.399Z,101533.13
2022-08-19T10:09:33.549Z,101523.53
2022-08-19T10:12:02.526Z,101530.13
2022-08-19T10:14:30.527Z,101530.88
2022-08-19T10:16:59.181Z,101529.13
2022-08-19T10:19:26.934Z,101535.78
2022-08-19T10:21:58.699Z,101537.59
2022-08-19T10:24:28.702Z,101526.44
2022-08-19T10:26:58.750Z,101531.66
2022-08-19T10:29:32.235Z,101521.81
2022-08-19T10:32:09.619Z,101527.69
2022-08-19T10:34:48.510Z,101534.50
2022-08-19T10:37:28.788Z,101529.28
2022-08-19T10:39:58.455Z,101525.81
2022-08-19T10:42:25.477Z,101537.03
2022-08-19T10:44:52.466Z,101529.50
2022-08-19T10:47:25.447Z,101517.97
2022-08-19T10:50:17.043Z,101518.28
2022-08-19T10:52:50.343Z,101510.78
2022-08-19T10:55:42.139Z,101510.63
2022-08-19T10:58:16.673Z,101518.47
2022-08-19T11:00:44.628Z,101514.22
2022-08-19T11:03:12.075Z,101506.47
2022-08-19T11:05:40.445Z,101499.97
2022-08-19T11:08:22.619Z,101491.38
2022-08-19T11:10:57.421Z,101497.56
2022-08-19T11:13:25.465Z,101504.47
2022-08-19T11:16:08.493Z,101502.63
2022-08-19T11:18:41.181Z,101491.94
2022-08-19T11:21:13.670Z,101495.16
2022-08-19T11:23:41.679Z,101490.84
2022-08-19T11:26:08.707Z,101488.88
2022-08-19T11:28:36.079Z,101497.59
2022-08-19T11:31:04.359Z,101487.25
2022-08-19T11:33:33.533Z,101490.22
2022-08-19T11:36:01.686Z,101484.59
2022-08-19T11:38:28.795Z,101481.81
2022-08-19T11:41:01.652Z,101478.47
2022-08-19T11:43:31.583Z,101477.66
2022-08-19T11:46:07.774Z,101471.34
2022-08-19T11:48:35.618Z,101476.75
2022-08-19T11:51:09.543Z,101480.13
2022-08-19T11:53:38.647Z,101482.59
2022-08-19T11:56:07.962Z,101476.09
2022-08-19T11:58:35.894Z,101485.81
2022-08-19T12:01:07.734Z,101482.09
2022-08-19T12:03:35.044Z,101483.38
2022-08-19T12:06:14.147Z,101478.00
2022-08-19T12:08:43.212Z,101476.50
2022-08-19T12:11:12.035Z,101477.22
2022-08-19T12:13:39.861Z,101487.47
2022-08-19T12:16:13.211Z,101490.34
2022-08-19T12:18:46.926Z,101488.09
2022-08-19T12:21:29.124Z,101495.69
2022-08-19T12:23:58.529Z,101493.97
2022-08-19T12:26:28.360Z,101488.44
2022-08-19T12:28:55.505Z,101489.59
2022-08-19T12:31:22.836Z,101493.84
2022-08-19T12:33:49.861Z,101496.00
2022-08-19T12:36:18.718Z,101496.22
2022-08-19T12:38:46.113Z,101502.44
2022-08-19T12:41:18.576Z,101503.91
2022-08-19T12:43:46.863Z,101496.19
2022-08-19T12:46:15.159Z,101499.09
2022-08-19T12:48:46.374Z,101505.84
2022-08-19T12:51:18.644Z,101499.34
2022-08-19T12:53:46.099Z,101498.00
2022-08-19T12:56:15.609Z,101497.94
2022-08-19T12:58:50.487Z,101482.50
2022-08-19T13:01:22.828Z,101488.78
2022-08-19T13:03:51.109Z,101480.28
2022-08-19T13:06:19.402Z,101483.75
2022-08-19T13:08:47.513Z,101481.09
2022-08-19T13:11:21.764Z,101477.34
2022-08-19T13:13:52.925Z,101487.78
2022-08-19T13:16:21.192Z,101482.97
2022-08-19T13:18:48.508Z,101484.69
2022-08-19T13:21:16.256Z,101488.06
2022-08-19T13:23:43.528Z,101488.75
2022-08-19T13:26:13.644Z,101486.78
2022-08-19T13:29:01.548Z,101490.22
2022-08-19T13:31:50.722Z,101490.78
2022-08-19T13:34:21.975Z,101493.59
2022-08-19T13:36:48.909Z,101488.25
2022-08-19T13:39:15.905Z,101483.34
2022-08-19T13:41:49.043Z,101483.41
2022-08-19T13:44:19.079Z,101489.50
2022-08-19T13:46:48.368Z,101482.38
2022-08-19T13:49:16.129Z,101480.38
2022-08-19T13:51:46.345Z,101480.91
2022-08-19T13:54:13.920Z,101488.66
2022-08-19T13:56:45.732Z,101502.09
2022-08-19T13:59:13.367Z,101498.00
2022-08-19T14:01:42.099Z,101501.44
2022-08-19T14:04:09.702Z,101491.03
2022-08-19T14:06:37.209Z,101489.31
2022-08-19T14:09:05.541Z,101498.13
2022-08-19T14:11:32.493Z,101486.28
2022-08-19T14:13:59.421Z,101488.78
2022-08-19T14:16:28.057Z,101485.47
2022-08-19T14:18:55.076Z,101494.31
2022-08-19T14:21:25.159Z,101489.63
2022-08-19T14:23:53.010Z,101491.56
2022-08-19T14:26:24.035Z,101497.06
2022-08-19T14:28:53.031Z,101502.56
2022-08-19T14:31:21.045Z,101503.72
2022-08-19T14:33:48.757Z,101499.59
2022-08-19T14:36:16.320Z,101499.91
2022-08-19T14:38:44.160Z,101500.41
2022-08-19T14:41:20.238Z,101488.91
2022-08-19T14:43:50.884Z,101499.03
2022-08-19T14:46:21.988Z,101496.59
2022-08-19T14:48:51.863Z,101492.72
2022-08-19T14:51:22.510Z,101480.97
2022-08-19T14:53:50.931Z,101491.94
2022-08-19T14:56:24.236Z,101484.25
2022-08-19T14:58:54.027Z,101484.25
2022-08-19T15:01:23.251Z,101479.56
2022-08-19T15:03:53.557Z,101479.84
2022-08-19T15:06:21.936Z,101482.88
2022-08-19T15:08:51.645Z,101482.03
2022-08-19T15:11:23.126Z,101481.19
2022-08-19T15:13:50.880Z,101476.25
2022-08-19T15:16:19.020Z,101475.19
2022-08-19T15:18:50.574Z,101474.88
2022-08-19T15:21:26.606Z,101473.25
2022-08-19T15:23:56.746Z,101473.47
2022-08-19T15:26:24.039Z,101468.53
2022-08-19T15:28:51.046Z,101475.66
2022-08-19T15:31:28.290Z,101473.97
2022-08-19T15:33:58.468Z,101470.13
2022-08-19T15:36:26.900Z,101473.44
2022-08-19T15:38:55.439Z,101482.22
2022-08-19T15:41:30.861Z,101476.41
2022-08-19T15:44:11.310Z,101484.97
2022-08-19T15:46:41.969Z,101487.16
2022-08-19T15:49:09.724Z,101487.19
2022-08-19T15:51:39.145Z,101487.16
2022-08-19T15:54:10.771Z,101487.16
2022-08-19T15:56:57.826Z,101489.88
2022-08-19T15:59:47.142Z,101493.44
2022-08-19T16:02:37.736Z,101487.66
2022-08-19T16:05:27.858Z,101486.00
2022-08-19T16:07:57.119Z,101486.00
2022-08-19T16:10:26.069Z,101493.19
2022-08-19T16:12:56.410Z,101492.06
2022-08-19T16:15:27.749Z,101478.34
2022-08-19T16:17:57.074Z,101495.09
2022-08-19T16:20:27.226Z,101486.81
2022-08-19T16:22:56.368Z,101493.16
2022-08-19T16:25:27.444Z,101488.75
2022-08-19T16:28:06.346Z,101492.03
2022-08-19T16:30:38.388Z,101485.19
2022-08-19T16:33:06.319Z,101498.63
2022-08-19T16:35:33.423Z,101490.38
2022-08-19T16:38:01.233Z,101487.84
2022-08-19T16:40:28.201Z,101493.34
2022-08-19T16:42:55.378Z,101486.41
2022-08-19T16:45:22.399Z,101485.84
2022-08-19T16:47:50.430Z,101480.91
2022-08-19T16:50:25.292Z,101484.50
2022-08-19T16:53:00.454Z,101485.88
2022-08-19T16:55:28.668Z,101490.22
2022-08-19T16:57:55.840Z,101493.00
2022-08-19T17:00:23.123Z,101493.34
2022-08-19T17:02:50.126Z,101482.56
2022-08-19T17:05:17.210Z,101491.97
2022-08-19T17:07:44.539Z,101489.22
2022-08-19T17:10:11.517Z,101494.69
2022-08-19T17:12:38.517Z,101482.72
2022-08-19T17:15:08.258Z,101479.69
2022-08-19T17:17:37.184Z,101488.22
2022-08-19T17:20:07.105Z,101473.09
2022-08-19T17:22:36.785Z,101480.53
2022-08-19T17:25:04.777Z,101482.25
2022-08-19T17:27:32.586Z,101487.16
2022-08-19T17:30:02.248Z,101490.16
2022-08-19T17:32:29.529Z,101487.72
2022-08-19T17:34:56.528Z,101476.75
2022-08-19T17:37:23.522Z,101488.28
2022-08-19T17:39:50.574Z,101489.44
2022-08-19T17:42:17.859Z,101491.66
2022-08-19T17:44:50.990Z,101490.00
2022-08-19T17:47:19.343Z,101497.69
2022-08-19T17:49:46.320Z,101500.44
2022-08-19T17:52:13.244Z,101500.97
2022-08-19T17:54:40.567Z,101493.84
2022-08-19T17:57:08.371Z,101497.16
2022-08-19T17:59:37.257Z,101500.13
2022-08-19T18:02:06.562Z,101499.88
2022-08-19T18:04:33.789Z,101507.28
2022-08-19T18:07:04.079Z,101505.91
2022-08-19T18:09:41.447Z,101515.25
2022-08-19T18:12:12.139Z,101516.06
2022-08-19T18:14:41.086Z,101525.38
2022-08-19T18:17:16.443Z,101527.28
2022-08-19T18:19:45.611Z,101525.94
2022-08-19T18:22:27.841Z,101529.47
2022-08-19T18:24:57.256Z,101527.81
2022-08-19T18:27:26.948Z,101525.91
2022-08-19T18:29:59.180Z,101528.09
2022-08-19T18:32:35.278Z,101539.84
2022-08-19T18:35:11.083Z,101539.31
2022-08-19T18:37:40.232Z,101542.59
2022-08-19T18:40:28.717Z,101536.53
2022-08-19T18:43:11.284Z,101544.19
2022-08-19T18:45:58.335Z,101545.97
2022-08-19T18:49:00.850Z,101549.31
2022-08-19T18:51:31.695Z,101552.25
2022-08-19T18:54:01.171Z,101554.47
2022-08-19T18:56:32.112Z,101561.59
2022-08-19T18:59:00.949Z,101571.47
2022-08-19T19:01:36.590Z,101564.88
2022-08-19T19:04:10.524Z,101569.50
2022-08-19T19:06:40.876Z,101572.25
2022-08-19T19:09:14.188Z,101580.75
2022-08-19T19:11:44.420Z,101575.53
2022-08-19T19:14:27.674Z,101580.72
2022-08-19T19:17:07.917Z,101589.47
2022-08-19T19:19:35.327Z,101588.38
2022-08-19T19:22:04.487Z,101590.81
2022-08-19T19:24:33.269Z,101588.31
2022-08-19T19:27:08.289Z,101598.19
2022-08-19T19:29:36.639Z,101595.13
2022-08-19T19:32:09.260Z,101596.19
2022-08-19T19:34:38.786Z,101594.22
2022-08-19T19:37:05.931Z,101601.84
2022-08-19T19:39:45.419Z,101591.97
2022-08-19T19:42:21.150Z,101607.72
2022-08-19T19:44:51.217Z,101606.59
2022-08-19T19:47:19.812Z,101596.16
2022-08-19T19:52:39.142Z,101605.63
2022-08-19T19:55:09.114Z,101602.78
2022-08-19T19:57:37.326Z,101601.44
2022-08-19T20:00:06.159Z,101594.22
2022-08-19T20:02:33.075Z,101602.47
2022-08-19T20:05:01.380Z,101600.19
2022-08-19T20:07:46.741Z,101599.16
2022-08-19T20:10:14.132Z,101597.47
2022-08-19T20:12:41.042Z,101597.41
2022-08-19T20:15:09.431Z,101608.34
2022-08-19T20:17:42.351Z,101613.75
2022-08-19T20:20:14.920Z,101607.22
2022-08-19T20:22:43.320Z,101619.78
2022-08-19T20:25:11.997Z,101612.91
2022-08-19T20:27:40.369Z,101611.25
2022-08-19T20:30:13.916Z,101613.13
2022-08-19T20:32:46.869Z,101616.81
2022-08-19T20:35:17.223Z,101617.38
2022-08-19T20:37:44.416Z,101617.88
2022-08-19T20:40:16.184Z,101624.19
2022-08-19T20:42:47.484Z,101618.94
2022-08-19T20:45:32.907Z,101625.44
2022-08-19T20:48:02.680Z,101625.16
2022-08-19T20:50:30.692Z,101621.63
2022-08-19T20:52:58.233Z,101621.81
2022-08-19T20:55:27.111Z,101618.31
2022-08-19T20:57:55.069Z,101622.13
2022-08-19T21:00:22.308Z,101629.50
2022-08-19T21:02:49.260Z,101623.78
2022-08-19T21:05:16.286Z,101620.47
2022-08-19T21:07:43.439Z,101623.53
2022-08-19T21:10:11.114Z,101622.69
2022-08-19T21:12:39.276Z,101623.25
2022-08-19T21:15:07.137Z,101618.63
2022-08-19T21:17:34.069Z,101616.16
2022-08-19T21:20:01.096Z,101613.97
2022-08-19T21:22:28.177Z,101617.28
2022-08-19T21:24:55.124Z,101609.34
2022-08-19T21:27:22.050Z,101608.53
2022-08-19T21:29:48.999Z,101606.34
2022-08-19T21:32:16.247Z,101607.44
2022-08-19T21:34:46.193Z,101604.69
2022-08-19T21:37:17.674Z,101600.06
2022-08-19T21:39:53.311Z,101598.75
2022-08-19T21:42:20.385Z,101608.00
2022-08-19T21:44:47.358Z,101618.13
2022-08-19T21:47:14.351Z,101608.88
2022-08-19T21:49:41.387Z,101607.19
2022-08-19T21:52:08.628Z,101608.00
2022-08-19T21:54:38.142Z,101599.59
2022-08-19T21:57:10.192Z,101605.06
2022-08-19T21:59:43.920Z,101603.88
2022-08-19T22:02:21.834Z,101611.34
2022-08-19T22:04:53.864Z,101617.06
2022-08-19T22:07:22.468Z,101614.34
2022-08-19T22:09:51.504Z,101614.06
2022-08-19T22:12:30.177Z,101609.69
2022-08-19T22:14:58.793Z,101611.81
2022-08-19T22:17:27.366Z,101618.94
2022-08-19T22:19:56.092Z,101620.63
2022-08-19T22:22:30.720Z,101616.81
2022-08-19T22:25:09.101Z,101616.56
2022-08-19T22:27:36.396Z,101619.03
2022-08-19T22:30:10.066Z,101620.13
2022-08-19T22:32:37.243Z,101619.28
2022-08-19T22:35:08.475Z,101624.75
2022-08-19T22:37:35.428Z,101622.28
2022-08-19T22:40:05.391Z,101619.28
2022-08-19T22:42:33.189Z,101627.25
2022-08-19T22:45:00.862Z,101627.50
2022-08-19T22:47:30.163Z,101627.75
2022-08-19T22:50:00.131Z,101636.50
2022-08-19T22:52:27.735Z,101634.28
2022-08-19T22:55:00.233Z,101626.91
2022-08-19T22:57:27.393Z,101632.97
2022-08-19T23:00:00.948Z,101624.75
2022-08-19T23:02:38.396Z,101619.78
2022-08-19T23:05:10.153Z,101622.28
2022-08-19T23:07:38.174Z,101621.44
2022-08-19T23:10:09.452Z,101611.81
2022-08-19T23:12:41.172Z,101615.16
2022-08-19T23:15:24.156Z,101606.13
2022-08-19T23:17:56.807Z,101618.94
2022-08-19T23:20:27.017Z,101623.84
2022-08-19T23:22:55.767Z,101632.88
2022-08-19T23:25:28.214Z,101628.22
2022-08-19T23:28:14.132Z,101624.41
2022-08-19T23:30:45.512Z,101626.56
2022-08-19T23:33:24.369Z,101630.38
2022-08-19T23:35:58.280Z,101630.38
2022-08-19T23:38:28.368Z,101634.78
2022-08-19T23:41:02.236Z,101629.88
2022-08-19T23:43:31.198Z,101634.88
2022-08-19T23:46:04.020Z,101632.47
2022-08-19T23:48:37.969Z,101631.22
2022-08-19T23:51:09.010Z,101630.91
2022-08-19T23:53:40.879Z,101630.38
2022-08-19T23:56:10.125Z,101629.88
2022-08-19T23:58:38.380Z,101626.09
